Time;durP1;ratioP1;P1;durP2;ratioP2;P2;SDS_P1;SDS_P2;PMS_P1;PMS_P2;Temp;Humidity;BMP_temperature;BMP_pressure;BME280_temperature;BME280_humidity;BME280_pressure;Samples;Min_cycle;Max_cycle;Signal;HPM_P1;HPM_P2
2024/02/15 00:01:07;;;;;;;16.33;14.57;;;;;;;;;;5047502;28;20479;-52
2024/02/15 00:03:34;;;;;;;15.48;13.73;;;;;;;;;;5048379;28;20025;-49
2024/02/15 00:06:00;;;;;;;15.85;14.15;;;;;;;;;;5047466;28;20048;-50
2024/02/15 00:08:26;;;;;;;18.90;17.00;;;;;;;;;;5050481;28;20059;-52
2024/02/15 00:10:53;;;;;;;18.42;16.35;;;;;;;;;;5052686;28;20096;-53
2024/02/15 00:13:19;;;;;;;15.70;13.15;;;;;;;;;;5052411;28;20031;-54
2024/02/15 00:15:48;;;;;;;15.32;13.63;;;;;;;;;;5052583;28;20036;-55
2024/02/15 00:18:14;;;;;;;16.50;14.80;;;;;;;;;;5051132;28;20423;-52
2024/02/15 00:20:40;;;;;;;16.98;15.23;;;;;;;;;;5050840;28;20052;-55
2024/02/15 00:23:06;;;;;;;19.58;17.58;;;;;;;;;;5052005;28;20525;-55
2024/02/15 00:25:32;;;;;;;16.67;13.98;;;;;;;;;;5052194;28;20017;-56
2024/02/15 00:28:01;;;;;;;16.10;14.40;;;;;;;;;;5052199;28;20071;-48
2024/02/15 00:30:28;;;;;;;15.80;14.10;;;;;;;;;;5052166;28;20387;-54
2024/02/15 00:32:54;;;;;;;15.80;14.10;;;;;;;;;;5051920;28;20036;-53
2024/02/15 00:35:20;;;;;;;15.43;13.70;;;;;;;;;;5051986;28;20025;-54
2024/02/15 00:37:46;;;;;;;15.88;14.18;;;;;;;;;;5052042;28;20383;-51
2024/02/15 00:40:12;;;;;;;16.42;14.50;;;;;;;;;;5051979;28;20116;-54
2024/02/15 00:42:39;;;;;;;16.20;14.50;;;;;;;;;;5050302;28;20111;-54
2024/02/15 00:45:05;;;;;;;15.73;14.02;;;;;;;;;;5051752;28;20383;-53
2024/02/15 00:47:32;;;;;;;19.83;17.92;;;;;;;;;;5051860;28;20013;-52
2024/02/15 00:49:58;;;;;;;17.95;14.80;;;;;;;;;;5052287;28;20162;-52
2024/02/15 00:52:25;;;;;;;15.88;14.18;;;;;;;;;;5051931;28;20048;-53
2024/02/15 00:54:51;;;;;;;20.05;18.08;;;;;;;;;;5052220;28;20065;-52
2024/02/15 00:57:17;;;;;;;15.75;14.05;;;;;;;;;;5051819;28;20021;-52
2024/02/15 00:59:43;;;;;;;15.73;14.02;;;;;;;;;;5051672;28;20527;-50
2024/02/15 01:02:09;;;;;;;15.88;14.18;;;;;;;;;;5049803;28;20025;-51
2024/02/15 01:04:35;;;;;;;15.85;14.15;;;;;;;;;;5051809;28;20036;-50
2024/02/15 01:07:01;;;;;;;19.40;17.52;;;;;;;;;;5050682;28;20462;-51
2024/02/15 01:09:27;;;;;;;20.17;17.23;;;;;;;;;;5051924;28;20063;-54
2024/02/15 01:11:53;;;;;;;20.00;18.10;;;;;;;;;;5051365;28;20343;-55
2024/02/15 01:14:19;;;;;;;16.30;14.60;;;;;;;;;;5049944;28;20107;-56
2024/02/15 01:16:46;;;;;;;16.85;15.05;;;;;;;;;;5051412;28;20032;-51
2024/02/15 01:19:12;;;;;;;15.68;13.98;;;;;;;;;;5050811;28;20053;-54
2024/02/15 01:21:38;;;;;;;16.90;15.20;;;;;;;;;;5050834;28;20045;-49
2024/02/15 01:24:06;;;;;;;16.02;14.32;;;;;;;;;;5050989;28;20081;-52
2024/02/15 01:26:32;;;;;;;15.93;14.23;;;;;;;;;;5049896;28;20025;-53
2024/02/15 01:28:58;;;;;;;15.77;14.07;;;;;;;;;;5051053;28;20028;-50
2024/02/15 01:31:24;;;;;;;17.90;16.00;;;;;;;;;;5050898;28;20013;-52
2024/02/15 01:33:50;;;;;;;21.73;19.45;;;;;;;;;;5050752;28;20021;-55
2024/02/15 01:36:17;;;;;;;17.88;15.85;;;;;;;;;;5050780;28;20044;-52
2024/02/15 01:38:43;;;;;;;15.60;13.90;;;;;;;;;;5049337;28;20036;-55
2024/02/15 01:41:09;;;;;;;17.98;16.17;;;;;;;;;;5050630;28;20068;-53
2024/02/15 01:43:38;;;;;;;17.48;15.77;;;;;;;;;;5050419;28;20080;-52
2024/02/15 01:46:10;;;;;;;16.30;14.60;;;;;;;;;;5050824;28;20017;-56
2024/02/15 01:48:39;;;;;;;18.40;16.58;;;;;;;;;;5050646;28;20025;-54
2024/02/15 01:51:06;;;;;;;15.95;14.25;;;;;;;;;;5050705;28;20024;-53
2024/02/15 01:53:32;;;;;;;16.40;14.70;;;;;;;;;;5048940;28;20491;-51
2024/02/15 01:55:59;;;;;;;18.40;16.50;;;;;;;;;;5049264;28;20059;-54
2024/02/15 01:58:26;;;;;;;16.45;14.75;;;;;;;;;;5050613;28;20035;-52
2024/02/15 02:00:52;;;;;;;16.08;14.38;;;;;;;;;;5050267;28;20374;-52
2024/02/15 02:03:18;;;;;;;16.90;15.20;;;;;;;;;;5048980;28;20513;-51
2024/02/15 02:05:44;;;;;;;16.25;14.55;;;;;;;;;;5049563;28;20021;-53
2024/02/15 02:08:10;;;;;;;18.13;16.33;;;;;;;;;;5050220;28;20025;-50
2024/02/15 02:10:37;;;;;;;17.70;15.90;;;;;;;;;;5050227;28;20021;-51
2024/02/15 02:13:03;;;;;;;16.30;14.60;;;;;;;;;;5050204;28;20029;-53
2024/02/15 02:15:31;;;;;;;17.38;15.57;;;;;;;;;;5050464;28;20029;-53
2024/02/15 02:17:58;;;;;;;15.95;14.25;;;;;;;;;;5050507;28;20176;-55
2024/02/15 02:20:24;;;;;;;16.90;15.10;;;;;;;;;;5050075;28;20104;-54
2024/02/15 02:22:51;;;;;;;15.55;13.85;;;;;;;;;;5050009;28;20056;-48
2024/02/15 02:25:18;;;;;;;15.90;14.20;;;;;;;;;;5050453;28;20782;-53
2024/02/15 02:27:44;;;;;;;16.10;14.40;;;;;;;;;;5050231;28;20057;-53
2024/02/15 02:30:19;;;;;;;16.15;14.45;;;;;;;;;;5048548;28;20495;-54
2024/02/15 02:32:46;;;;;;;18.58;16.77;;;;;;;;;;5048696;28;20104;-52
2024/02/15 02:35:12;;;;;;;17.67;15.98;;;;;;;;;;5049862;28;20025;-52
2024/02/15 02:37:41;;;;;;;15.60;13.88;;;;;;;;;;5049952;28;20021;-52
2024/02/15 02:40:08;;;;;;;15.20;13.43;;;;;;;;;;5048604;28;20020;-52
2024/02/15 02:42:35;;;;;;;18.20;16.40;;;;;;;;;;5050235;28;20032;-54
2024/02/15 02:45:01;;;;;;;15.30;13.50;;;;;;;;;;5049526;28;20497;-53
2024/02/15 02:47:27;;;;;;;16.30;14.60;;;;;;;;;;5049527;28;20020;-54
2024/02/15 02:49:53;;;;;;;16.48;14.75;;;;;;;;;;5049476;28;20021;-52
2024/02/15 02:52:19;;;;;;;17.83;14.40;;;;;;;;;;5048941;28;20021;-54
2024/02/15 02:54:45;;;;;;;15.25;13.40;;;;;;;;;;5047819;28;20108;-54
2024/02/15 02:57:10;;;;;;;16.67;14.23;;;;;;;;;;5049222;28;20017;-58
2024/02/15 02:59:39;;;;;;;15.20;13.35;;;;;;;;;;5048991;28;20076;-54
2024/02/15 03:02:07;;;;;;;15.20;13.30;;;;;;;;;;5048659;28;20024;-56
2024/02/15 03:04:34;;;;;;;15.20;13.25;;;;;;;;;;5049000;28;20347;-53
2024/02/15 03:07:00;;;;;;;15.23;13.50;;;;;;;;;;5049104;28;20032;-51
2024/02/15 03:09:29;;;;;;;17.15;15.45;;;;;;;;;;5047736;28;20017;-52
2024/02/15 03:11:56;;;;;;;15.20;13.32;;;;;;;;;;5048865;28;20514;-53
2024/02/15 03:14:22;;;;;;;15.80;14.10;;;;;;;;;;5048690;28;20662;-52
2024/02/15 03:16:48;;;;;;;16.63;14.93;;;;;;;;;;5048921;28;20124;-50
2024/02/15 03:19:14;;;;;;;15.40;13.68;;;;;;;;;;5049003;28;20036;-55
2024/02/15 03:21:41;;;;;;;15.30;13.60;;;;;;;;;;5048645;28;20475;-52
2024/02/15 03:24:07;;;;;;;15.30;13.55;;;;;;;;;;5047362;28;20059;-56
2024/02/15 03:26:36;;;;;;;15.30;13.60;;;;;;;;;;5048704;28;20459;-53
2024/02/15 03:29:02;;;;;;;15.45;13.75;;;;;;;;;;5048868;28;20469;-54
2024/02/15 03:31:28;;;;;;;15.55;13.85;;;;;;;;;;5048618;28;20021;-52
2024/02/15 03:33:54;;;;;;;15.80;14.10;;;;;;;;;;5047575;28;20013;-53
2024/02/15 03:36:21;;;;;;;16.27;14.57;;;;;;;;;;5048700;28;20079;-56
2024/02/15 03:38:48;;;;;;;16.95;15.20;;;;;;;;;;5047362;28;20612;-51
2024/02/15 03:41:14;;;;;;;17.30;14.80;;;;;;;;;;5047431;28;20124;-53
2024/02/15 03:43:40;;;;;;;15.40;13.70;;;;;;;;;;5050603;28;20021;-52
2024/02/15 03:46:08;;;;;;;22.77;17.27;;;;;;;;;;5052670;28;20471;-54
2024/02/15 03:48:35;;;;;;;15.30;13.48;;;;;;;;;;5052685;28;20028;-55
2024/02/15 03:51:01;;;;;;;15.90;14.20;;;;;;;;;;5052578;28;20052;-54
2024/02/15 03:53:30;;;;;;;15.95;13.82;;;;;;;;;;5051361;28;20025;-56
2024/02/15 03:55:56;;;;;;;16.23;14.45;;;;;;;;;;5052674;28;20491;-51
2024/02/15 03:58:22;;;;;;;15.35;13.70;;;;;;;;;;5051218;28;20029;-55
2024/02/15 04:00:48;;;;;;;15.30;13.50;;;;;;;;;;5051072;28;20032;-53
2024/02/15 04:03:14;;;;;;;16.25;14.50;;;;;;;;;;5052090;28;20017;-50
2024/02/15 04:05:40;;;;;;;15.40;13.60;;;;;;;;;;5052381;28;20477;-55
2024/02/15 04:08:06;;;;;;;15.40;13.65;;;;;;;;;;5052475;28;20159;-50
2024/02/15 04:10:32;;;;;;;16.52;14.73;;;;;;;;;;5052152;28;20021;-52
2024/02/15 04:12:58;;;;;;;15.50;13.80;;;;;;;;;;5052168;28;20147;-51
2024/02/15 04:15:24;;;;;;;15.70;14.00;;;;;;;;;;5052387;28;20032;-52
2024/02/15 04:17:55;;;;;;;15.60;13.65;;;;;;;;;;5052355;28;20109;-53
2024/02/15 04:20:21;;;;;;;16.83;14.30;;;;;;;;;;5052537;28;20021;-50
2024/02/15 04:22:50;;;;;;;15.63;13.88;;;;;;;;;;5052052;28;20096;-51
2024/02/15 04:25:17;;;;;;;15.38;13.55;;;;;;;;;;5050968;28;20475;-52
2024/02/15 04:27:45;;;;;;;15.30;13.57;;;;;;;;;;5050935;28;20028;-53
2024/02/15 04:30:11;;;;;;;15.48;13.68;;;;;;;;;;5052311;28;20052;-52
2024/02/15 04:32:37;;;;;;;16.38;14.68;;;;;;;;;;5051985;28;20059;-55
2024/02/15 04:35:05;;;;;;;17.63;15.85;;;;;;;;;;5052000;28;20477;-53
2024/02/15 04:37:31;;;;;;;15.30;13.20;;;;;;;;;;5050560;28;20025;-49
2024/02/15 04:39:58;;;;;;;15.10;12.85;;;;;;;;;;5051803;28;20144;-52
2024/02/15 04:42:26;;;;;;;15.00;12.73;;;;;;;;;;5051652;28;20028;-51
2024/02/15 04:44:53;;;;;;;;;;;;;;;;;;5052547;28;20101;-54
2024/02/15 04:47:20;;;;;;;14.90;12.50;;;;;;;;;;5051992;28;19904;-57
2024/02/15 04:49:46;;;;;;;14.80;12.35;;;;;;;;;;5051902;28;20071;-52
2024/02/15 04:52:12;;;;;;;15.20;13.15;;;;;;;;;;5051395;28;20021;-55
2024/02/15 04:54:38;;;;;;;14.93;12.65;;;;;;;;;;5050457;28;20025;-55
2024/02/15 04:57:06;;;;;;;14.98;12.63;;;;;;;;;;5050300;28;20060;-56
2024/02/15 04:59:32;;;;;;;15.20;13.25;;;;;;;;;;5051496;28;20692;-53
2024/02/15 05:01:58;;;;;;;15.10;13.02;;;;;;;;;;5050150;28;20057;-51
2024/02/15 05:04:25;;;;;;;15.07;12.93;;;;;;;;;;5051342;28;20021;-54
2024/02/15 05:06:52;;;;;;;15.20;13.27;;;;;;;;;;5051776;28;20062;-53
2024/02/15 05:09:18;;;;;;;15.30;13.40;;;;;;;;;;5050258;28;20123;-55
2024/02/15 05:11:48;;;;;;;15.18;13.00;;;;;;;;;;5050781;28;20431;-58
2024/02/15 05:14:18;;;;;;;15.20;13.15;;;;;;;;;;5067719;22;20163;-55
2024/02/15 05:16:47;;;;;;;15.02;12.70;;;;;;;;;;5050298;28;20040;-55
2024/02/15 05:19:13;;;;;;;;;;;;;;;;;;5053091;28;20033;-51
2024/02/15 05:21:40;;;;;;;15.10;12.80;;;;;;;;;;5052449;28;20247;-51
2024/02/15 05:24:06;;;;;;;14.90;12.32;;;;;;;;;;5052543;28;20025;-53
2024/02/15 05:26:32;;;;;;;15.20;12.90;;;;;;;;;;5052521;28;20151;-48
2024/02/15 05:28:58;;;;;;;14.80;12.10;;;;;;;;;;5050997;28;20029;-49
2024/02/15 05:31:25;;;;;;;15.10;12.70;;;;;;;;;;5052120;28;20051;-52
2024/02/15 05:33:52;;;;;;;14.98;12.50;;;;;;;;;;5052250;28;20362;-49
2024/02/15 05:36:20;;;;;;;14.90;12.48;;;;;;;;;;5052204;28;20107;-55
2024/02/15 05:38:46;;;;;;;15.10;12.67;;;;;;;;;;5050984;28;20056;-51
2024/02/15 05:41:12;;;;;;;15.07;12.60;;;;;;;;;;5050857;28;20037;-53
2024/02/15 05:43:41;;;;;;;15.10;12.70;;;;;;;;;;5052064;28;20060;-52
2024/02/15 05:46:07;;;;;;;15.00;12.60;;;;;;;;;;5052255;28;20544;-48
2024/02/15 05:48:37;;;;;;;14.98;12.43;;;;;;;;;;5050795;28;20021;-54
2024/02/15 05:51:03;;;;;;;15.00;12.57;;;;;;;;;;5052054;28;20553;-48
2024/02/15 05:53:30;;;;;;;15.00;12.57;;;;;;;;;;5051617;28;20103;-52
2024/02/15 05:55:57;;;;;;;15.00;12.65;;;;;;;;;;5051926;28;20470;-55
2024/02/15 05:58:24;;;;;;;15.10;12.83;;;;;;;;;;5051974;28;20032;-51
2024/02/15 06:00:50;;;;;;;15.00;12.50;;;;;;;;;;5050680;28;20082;-54
2024/02/15 06:03:16;;;;;;;14.90;12.27;;;;;;;;;;5051866;28;20017;-53
2024/02/15 06:05:43;;;;;;;14.80;12.25;;;;;;;;;;5050071;28;20029;-52
2024/02/15 06:08:12;;;;;;;14.80;12.25;;;;;;;;;;5051818;28;20036;-50
2024/02/15 06:10:38;;;;;;;;;;;;;;;;;;5052064;28;20023;-50
2024/02/15 06:13:04;;;;;;;14.70;11.80;;;;;;;;;;5051210;28;20406;-53
2024/02/15 06:15:30;;;;;;;14.70;11.85;;;;;;;;;;5050614;28;20033;-50
2024/02/15 06:17:57;;;;;;;14.68;11.68;;;;;;;;;;5047647;28;20025;-51
2024/02/15 06:20:24;;;;;;;14.50;11.13;;;;;;;;;;5047929;28;20503;-50
2024/02/15 06:22:55;;;;;;;14.50;11.10;;;;;;;;;;5048812;28;20025;-50
2024/02/15 06:25:21;;;;;;;15.35;11.60;;;;;;;;;;5049050;28;20041;-54
2024/02/15 06:27:48;;;;;;;14.50;11.10;;;;;;;;;;5048995;28;20086;-53
2024/02/15 06:41:14;;;;;;;14.60;11.45;;;;;;;;;;5050880;28;20563;-51
2024/02/15 06:43:40;;;;;;;14.70;11.80;;;;;;;;;;5050458;28;20033;-52
2024/02/15 06:46:10;;;;;;;14.98;12.30;;;;;;;;;;5049031;28;20074;-54
2024/02/15 06:48:36;;;;;;;15.40;13.38;;;;;;;;;;5048943;28;20025;-52
2024/02/15 06:51:03;;;;;;;16.77;15.07;;;;;;;;;;5048714;28;20025;-52
2024/02/15 06:53:30;;;;;;;17.60;15.80;;;;;;;;;;5048252;28;20402;-49
2024/02/15 06:55:56;;;;;;;18.05;16.25;;;;;;;;;;5049120;28;20029;-56
2024/02/15 06:58:22;;;;;;;20.80;18.90;;;;;;;;;;5049106;28;20028;-52
2024/02/15 07:00:52;;;;;;;23.80;21.80;;;;;;;;;;5048945;28;20028;-51
2024/02/15 07:03:18;;;;;;;25.38;23.27;;;;;;;;;;5048804;28;20047;-55
2024/02/15 07:05:44;;;;;;;31.67;29.17;;;;;;;;;;5049261;28;20539;-55
2024/02/15 07:08:12;;;;;;;32.67;30.08;;;;;;;;;;5050115;28;20040;-55
2024/02/15 07:10:38;;;;;;;;;;;;;;;;;;5049286;28;20056;-51
2024/02/15 07:13:06;;;;;;;33.88;31.27;;;;;;;;;;5048804;28;20368;-52
2024/02/15 07:15:33;;;;;;;32.95;30.35;;;;;;;;;;5048776;28;20116;-55
2024/02/15 07:17:59;;;;;;;33.20;30.60;;;;;;;;;;5049855;28;20025;-53
2024/02/15 07:20:25;;;;;;;34.95;32.15;;;;;;;;;;5049483;28;20056;-52
2024/02/15 07:22:53;;;;;;;34.42;31.73;;;;;;;;;;5048953;28;20032;-52
2024/02/15 07:25:19;;;;;;;32.58;29.98;;;;;;;;;;5048655;28;20028;-53
2024/02/15 07:27:45;;;;;;;34.92;31.95;;;;;;;;;;5050189;28;20179;-54
2024/02/15 07:30:11;;;;;;;35.30;32.60;;;;;;;;;;5048637;28;20541;-53
2024/02/15 07:32:37;;;;;;;36.72;33.83;;;;;;;;;;5040036;28;20029;-53
2024/02/15 07:35:07;;;;;;;36.10;33.30;;;;;;;;;;5043757;28;20028;-53
2024/02/15 07:37:33;;;;;;;33.63;30.92;;;;;;;;;;5029033;28;20460;-52
2024/02/15 07:39:59;;;;;;;33.30;30.60;;;;;;;;;;5033277;28;20494;-51
2024/02/15 07:42:25;;;;;;;32.88;30.27;;;;;;;;;;5051409;28;20509;-55
2024/02/15 07:44:52;;;;;;;34.10;31.45;;;;;;;;;;5054340;28;20017;-54
2024/02/15 07:47:20;;;;;;;34.67;32.05;;;;;;;;;;5051953;28;20029;-49
2024/02/15 07:49:47;;;;;;;31.85;29.35;;;;;;;;;;5034906;28;20053;-50
2024/02/15 07:52:13;;;;;;;31.05;28.55;;;;;;;;;;5028626;28;20033;-59
2024/02/15 07:54:39;;;;;;;29.88;27.48;;;;;;;;;;5028007;28;20061;-56
2024/02/15 07:57:05;;;;;;;30.73;28.10;;;;;;;;;;5029393;28;20029;-60
2024/02/15 07:59:31;;;;;;;29.73;27.33;;;;;;;;;;5029467;28;20537;-56
2024/02/15 08:01:57;;;;;;;29.27;26.88;;;;;;;;;;5027976;28;20303;-57
2024/02/15 08:04:24;;;;;;;28.55;26.25;;;;;;;;;;5029474;28;20026;-60
2024/02/15 08:06:53;;;;;;;28.52;26.23;;;;;;;;;;5042818;28;20017;-61
2024/02/15 08:09:21;;;;;;;27.88;25.58;;;;;;;;;;5049440;28;20029;-56
2024/02/15 08:11:47;;;;;;;27.40;25.20;;;;;;;;;;5048220;28;20024;-55
2024/02/15 08:14:13;;;;;;;29.33;27.02;;;;;;;;;;5048215;28;20033;-62
2024/02/15 08:16:40;;;;;;;30.92;28.42;;;;;;;;;;5048129;28;20029;-59
2024/02/15 08:19:06;;;;;;;29.05;26.75;;;;;;;;;;5048454;28;20029;-61
2024/02/15 08:21:33;;;;;;;29.90;27.50;;;;;;;;;;5049091;28;20479;-61
2024/02/15 08:24:06;;;;;;;28.98;26.67;;;;;;;;;;5047562;28;20052;-59
2024/02/15 08:26:32;;;;;;;29.50;27.13;;;;;;;;;;5047898;28;20025;-61
2024/02/15 08:28:58;;;;;;;30.25;27.85;;;;;;;;;;5050534;28;20035;-61
2024/02/15 08:31:24;;;;;;;29.48;27.15;;;;;;;;;;5056463;28;20056;-62
2024/02/15 08:33:51;;;;;;;29.63;27.23;;;;;;;;;;5051681;28;20056;-61
2024/02/15 08:36:16;;;;;;;30.95;28.55;;;;;;;;;;5051532;28;20028;-61
2024/02/15 08:38:43;;;;;;;30.98;28.55;;;;;;;;;;5053208;28;20107;-61
2024/02/15 08:41:11;;;;;;;31.15;28.67;;;;;;;;;;5051470;28;20032;-60
2024/02/15 08:43:39;;;;;;;30.77;28.35;;;;;;;;;;5051080;28;20029;-60
2024/02/15 08:46:06;;;;;;;;;;;;;;;;;;5051702;28;20151;-49
2024/02/15 08:48:33;;;;;;;30.80;28.30;;;;;;;;;;5051224;28;19916;-48
2024/02/15 08:50:59;;;;;;;30.70;28.30;;;;;;;;;;5052621;28;20121;-49
2024/02/15 08:53:26;;;;;;;30.67;28.27;;;;;;;;;;5052385;28;20486;-49
2024/02/15 08:55:52;;;;;;;31.67;29.17;;;;;;;;;;5052339;28;20032;-46
2024/02/15 08:58:19;;;;;;;31.05;28.65;;;;;;;;;;5051098;28;20047;-47
2024/02/15 09:00:45;;;;;;;30.35;27.95;;;;;;;;;;5051079;28;20037;-49
2024/02/15 09:03:12;;;;;;;29.52;27.23;;;;;;;;;;5052279;28;20021;-51
2024/02/15 09:05:40;;;;;;;29.20;26.90;;;;;;;;;;5050522;28;20021;-51
2024/02/15 09:08:06;;;;;;;29.50;27.13;;;;;;;;;;5052315;28;20017;-52
2024/02/15 09:10:32;;;;;;;31.25;28.75;;;;;;;;;;5052288;28;20021;-54
2024/02/15 09:12:58;;;;;;;30.35;27.95;;;;;;;;;;5051847;28;20533;-53
2024/02/15 09:15:24;;;;;;;30.20;27.80;;;;;;;;;;5051909;28;20068;-53
2024/02/15 09:17:51;;;;;;;29.67;27.27;;;;;;;;;;5052260;28;20029;-52
2024/02/15 09:20:20;;;;;;;28.90;26.60;;;;;;;;;;5049198;28;20057;-52
2024/02/15 09:22:54;;;;;;;29.90;27.50;;;;;;;;;;5049552;28;20032;-51
2024/02/15 09:25:23;;;;;;;29.98;27.58;;;;;;;;;;5050071;28;20028;-51
2024/02/15 09:27:49;;;;;;;30.00;27.60;;;;;;;;;;5051304;28;20031;-48
2024/02/15 09:30:15;;;;;;;34.50;31.80;;;;;;;;;;5049942;28;20435;-49
2024/02/15 09:32:42;;;;;;;30.48;28.08;;;;;;;;;;5051245;28;20029;-52
2024/02/15 09:35:08;;;;;;;31.02;28.52;;;;;;;;;;5050281;28;20106;-48
2024/02/15 09:37:38;;;;;;;29.85;27.45;;;;;;;;;;5050592;28;20025;-51
2024/02/15 09:40:16;;;;;;;30.45;28.05;;;;;;;;;;5054031;28;20048;-57
2024/02/15 09:42:44;;;;;;;29.80;27.40;;;;;;;;;;5056117;28;20024;-51
2024/02/15 09:45:10;;;;;;;28.80;26.50;;;;;;;;;;5052211;28;20398;-51
2024/02/15 09:47:37;;;;;;;29.88;27.48;;;;;;;;;;5050482;28;20021;-53
2024/02/15 09:50:16;;;;;;;29.35;26.95;;;;;;;;;;5050577;28;20029;-52
2024/02/15 09:52:50;;;;;;;29.65;27.25;;;;;;;;;;5050980;28;20029;-49
2024/02/15 09:55:17;;;;;;;30.05;27.65;;;;;;;;;;5050172;28;20028;-51
2024/02/15 09:57:44;;;;;;;29.73;27.33;;;;;;;;;;5049942;28;20025;-48
2024/02/15 10:00:13;;;;;;;29.98;27.58;;;;;;;;;;5050053;28;20514;-53
2024/02/15 10:02:46;;;;;;;28.40;26.10;;;;;;;;;;5050930;28;20040;-53
2024/02/15 10:05:12;;;;;;;27.88;25.58;;;;;;;;;;5049782;28;20047;-50
2024/02/15 10:07:44;;;;;;;27.00;24.80;;;;;;;;;;5049680;28;20025;-52
2024/02/15 10:10:17;;;;;;;28.25;25.95;;;;;;;;;;5049750;28;20040;-52
2024/02/15 10:12:43;;;;;;;27.75;25.45;;;;;;;;;;5050585;28;20021;-50
2024/02/15 10:15:09;;;;;;;27.45;25.20;;;;;;;;;;5049131;28;20059;-53
2024/02/15 10:17:36;;;;;;;27.05;24.85;;;;;;;;;;5049435;28;20419;-51
2024/02/15 10:20:06;;;;;;;26.92;24.73;;;;;;;;;;5049318;28;20025;-52
2024/02/15 10:22:33;;;;;;;27.08;24.88;;;;;;;;;;5049164;28;20036;-53
2024/02/15 10:25:12;;;;;;;26.45;24.25;;;;;;;;;;5049250;28;20029;-56
2024/02/15 10:27:39;;;;;;;25.48;23.38;;;;;;;;;;5049694;28;20021;-53
2024/02/15 10:30:17;;;;;;;25.50;23.40;;;;;;;;;;5049583;28;20033;-52
2024/02/15 10:32:44;;;;;;;26.63;24.42;;;;;;;;;;5049101;28;20513;-53
2024/02/15 10:35:15;;;;;;;26.75;24.55;;;;;;;;;;5049697;28;20095;-56
2024/02/15 10:37:42;;;;;;;25.73;23.63;;;;;;;;;;5050940;28;20082;-51
2024/02/15 10:40:13;;;;;;;26.20;24.10;;;;;;;;;;5049350;28;20499;-54
2024/02/15 10:42:42;;;;;;;26.52;24.33;;;;;;;;;;5049016;28;20029;-55
2024/02/15 10:45:10;;;;;;;27.40;25.20;;;;;;;;;;5050525;28;20020;-51
2024/02/15 10:47:40;;;;;;;27.27;25.08;;;;;;;;;;5049521;28;20021;-53
2024/02/15 10:50:07;;;;;;;26.73;24.52;;;;;;;;;;5049373;28;20071;-49
2024/02/15 10:52:35;;;;;;;26.90;24.70;;;;;;;;;;5050020;28;20498;-51
2024/02/15 10:55:08;;;;;;;27.20;25.00;;;;;;;;;;5049257;28;20021;-49
2024/02/15 10:57:38;;;;;;;27.85;25.65;;;;;;;;;;5050570;28;20025;-54
2024/02/15 11:00:19;;;;;;;27.90;25.70;;;;;;;;;;5048972;28;20112;-49
2024/02/15 11:02:51;;;;;;;26.92;24.73;;;;;;;;;;5049935;28;20036;-52
2024/02/15 11:05:21;;;;;;;25.80;23.70;;;;;;;;;;5050246;28;20040;-49
2024/02/15 11:07:47;;;;;;;25.75;23.65;;;;;;;;;;5050133;28;20029;-53
2024/02/15 11:10:17;;;;;;;25.73;23.63;;;;;;;;;;5049010;28;20025;-52
2024/02/15 11:12:43;;;;;;;25.27;23.17;;;;;;;;;;5048374;28;20025;-53
2024/02/15 11:15:13;;;;;;;26.27;24.17;;;;;;;;;;5067521;22;20037;-46
2024/02/15 11:17:39;;;;;;;26.65;24.48;;;;;;;;;;5046443;28;20056;-52
2024/02/15 11:20:10;;;;;;;27.40;25.20;;;;;;;;;;5045975;28;20028;-52
2024/02/15 11:22:37;;;;;;;26.65;24.50;;;;;;;;;;5046765;28;20044;-50
2024/02/15 11:25:11;;;;;;;27.10;24.90;;;;;;;;;;5046038;28;20033;-52
2024/02/15 11:27:39;;;;;;;26.95;24.75;;;;;;;;;;5030256;28;20436;-53
2024/02/15 11:30:20;;;;;;;26.23;24.13;;;;;;;;;;5030203;28;20041;-51
2024/02/15 11:32:49;;;;;;;25.90;23.80;;;;;;;;;;5045262;28;20064;-55
2024/02/15 11:35:20;;;;;;;26.13;24.02;;;;;;;;;;5030227;28;20434;-51
2024/02/15 11:40:44;;;;;;;26.30;24.17;;;;;;;;;;5032991;28;20067;-53
2024/02/15 11:43:30;;;;;;;26.75;24.55;;;;;;;;;;5025459;28;20037;-53
2024/02/15 11:45:59;;;;;;;26.60;24.40;;;;;;;;;;5030234;28;20026;-50
2024/02/15 11:48:25;;;;;;;26.05;23.95;;;;;;;;;;5029856;28;20030;-53
2024/02/15 11:50:51;;;;;;;25.92;23.80;;;;;;;;;;5030228;28;20113;-55
2024/02/15 11:53:18;;;;;;;25.55;23.45;;;;;;;;;;5029717;28;20137;-54
2024/02/15 11:55:44;;;;;;;26.05;23.95;;;;;;;;;;5029662;28;20030;-53
2024/02/15 12:19:55;;;;;;;27.42;25.13;;;;;;;;;;5033769;28;20080;-57
2024/02/15 12:22:30;;;;;;;27.30;25.00;;;;;;;;;;5031655;28;20095;-51
2024/02/15 12:25:00;;;;;;;27.08;24.88;;;;;;;;;;5033258;28;20029;-53
2024/02/15 12:27:30;;;;;;;26.92;24.73;;;;;;;;;;5033300;28;20021;-50
2024/02/15 12:29:59;;;;;;;26.88;24.67;;;;;;;;;;5032982;28;20029;-56
2024/02/15 12:32:27;;;;;;;26.83;24.63;;;;;;;;;;5031839;28;20025;-53
2024/02/15 12:34:54;;;;;;;27.15;24.95;;;;;;;;;;5031928;28;20383;-49
2024/02/15 12:37:23;;;;;;;27.52;25.23;;;;;;;;;;5032923;28;20025;-52
2024/02/15 12:39:49;;;;;;;27.30;25.10;;;;;;;;;;5031812;28;20025;-53
2024/02/15 12:42:20;;;;;;;27.15;24.95;;;;;;;;;;5032974;28;20035;-56
2024/02/15 12:44:47;;;;;;;28.15;25.85;;;;;;;;;;5033077;28;20013;-52
2024/02/15 12:47:39;;;;;;;28.05;25.75;;;;;;;;;;5032944;28;20017;-54
2024/02/15 12:50:17;;;;;;;28.77;26.48;;;;;;;;;;5030275;28;20029;-54
2024/02/15 12:52:47;;;;;;;29.13;26.83;;;;;;;;;;5032397;28;20022;-53
2024/02/15 12:55:14;;;;;;;29.00;26.70;;;;;;;;;;5032618;28;20013;-56
2024/02/15 12:57:41;;;;;;;29.25;26.95;;;;;;;;;;5032679;28;20017;-54
2024/02/15 13:00:31;;;;;;;28.33;26.13;;;;;;;;;;5031499;28;20076;-54
2024/02/15 13:02:58;;;;;;;27.95;25.75;;;;;;;;;;5032258;28;20029;-52
2024/02/15 13:05:28;;;;;;;27.80;25.60;;;;;;;;;;5032527;28;20414;-56
2024/02/15 13:07:58;;;;;;;27.90;25.70;;;;;;;;;;5032537;28;20430;-57
2024/02/15 13:10:24;;;;;;;27.75;25.50;;;;;;;;;;5031417;28;20056;-56
2024/02/15 13:12:52;;;;;;;26.85;24.75;;;;;;;;;;5032366;28;20450;-53
2024/02/15 13:15:21;;;;;;;26.92;24.83;;;;;;;;;;5031193;28;20578;-53
2024/02/15 13:17:51;;;;;;;25.88;23.77;;;;;;;;;;5032848;28;20087;-55
2024/02/15 13:20:20;;;;;;;25.67;23.58;;;;;;;;;;5032896;28;20021;-56
2024/02/15 13:22:47;;;;;;;24.58;22.58;;;;;;;;;;5032256;28;20029;-54
2024/02/15 13:25:16;;;;;;;21.58;19.67;;;;;;;;;;5032241;28;20117;-54
2024/02/15 13:27:42;;;;;;;;;;;;;;;;;;5032772;28;20045;-57
2024/02/15 13:30:09;;;;;;;17.08;15.38;;;;;;;;;;5047578;28;19908;-55
2024/02/15 13:32:38;;;;;;;17.08;15.38;;;;;;;;;;5032102;28;20045;-48
2024/02/15 13:35:13;;;;;;;16.80;15.10;;;;;;;;;;5031746;28;20044;-50
2024/02/15 13:37:43;;;;;;;15.98;14.27;;;;;;;;;;5032187;28;20028;-55
2024/02/15 13:40:14;;;;;;;15.50;13.80;;;;;;;;;;5032040;28;20481;-55
2024/02/15 13:42:42;;;;;;;15.32;13.63;;;;;;;;;;5032082;28;20115;-51
2024/02/15 13:45:09;;;;;;;15.20;13.25;;;;;;;;;;5030794;28;20021;-62
2024/02/15 13:47:35;;;;;;;14.93;12.48;;;;;;;;;;5032027;28;20048;-56
2024/02/15 13:50:02;;;;;;;15.00;12.70;;;;;;;;;;5032082;28;20590;-55
2024/02/15 13:52:28;;;;;;;15.00;12.50;;;;;;;;;;5031763;28;20009;-56
2024/02/15 13:54:54;;;;;;;14.73;12.07;;;;;;;;;;5031542;28;20037;-55
2024/02/15 13:57:20;;;;;;;14.70;11.90;;;;;;;;;;5030322;28;20017;-56
2024/02/15 13:59:46;;;;;;;14.68;11.80;;;;;;;;;;5031847;28;20021;-56
2024/02/15 14:02:14;;;;;;;14.60;11.77;;;;;;;;;;5031700;28;20031;-54
2024/02/15 14:04:40;;;;;;;14.60;11.30;;;;;;;;;;5030277;28;20021;-55
2024/02/15 14:07:07;;;;;;;14.52;11.43;;;;;;;;;;5031827;28;20071;-54
2024/02/15 14:09:34;;;;;;;14.40;11.00;;;;;;;;;;5031562;28;20092;-51
2024/02/15 14:12:02;;;;;;;14.35;11.00;;;;;;;;;;5031767;28;20017;-51
2024/02/15 14:14:28;;;;;;;14.32;10.90;;;;;;;;;;5030620;28;20025;-55
2024/02/15 14:16:53;;;;;;;14.45;11.20;;;;;;;;;;5030208;28;20037;-50
2024/02/15 14:19:21;;;;;;;14.55;11.40;;;;;;;;;;5033829;28;20067;-52
2024/02/15 14:21:47;;;;;;;14.57;11.40;;;;;;;;;;5032535;28;20021;-52
2024/02/15 14:24:13;;;;;;;14.30;10.80;;;;;;;;;;5031841;28;20021;-49
2024/02/15 14:26:39;;;;;;;14.27;10.75;;;;;;;;;;5031246;28;20017;-53
2024/02/15 14:29:05;;;;;;;14.30;10.77;;;;;;;;;;5030210;28;20018;-52
2024/02/15 14:34:17;;;;;;;14.18;10.30;;;;;;;;;;5031170;28;20139;-55
2024/02/15 14:36:47;;;;;;;14.00;10.07;;;;;;;;;;5031196;28;20018;-53
2024/02/15 14:39:14;;;;;;;14.15;10.30;;;;;;;;;;5031203;28;20394;-53
2024/02/15 14:41:40;;;;;;;14.07;10.20;;;;;;;;;;5030524;28;20044;-55
2024/02/15 14:44:06;;;;;;;14.18;10.40;;;;;;;;;;5030782;28;20025;-51
2024/02/15 14:46:35;;;;;;;14.05;10.15;;;;;;;;;;5030505;28;20092;-57
2024/02/15 14:49:02;;;;;;;14.00;9.93;;;;;;;;;;5030669;28;20027;-52
2024/02/15 14:51:28;;;;;;;14.10;10.13;;;;;;;;;;5030479;28;20018;-56
2024/02/15 14:53:54;;;;;;;14.10;10.30;;;;;;;;;;5028986;28;20087;-54
2024/02/15 14:56:20;;;;;;;14.02;10.05;;;;;;;;;;5029196;28;20025;-53
2024/02/15 14:58:47;;;;;;;13.98;9.98;;;;;;;;;;5030324;28;20433;-61